Huvudsida
METAR-TAF:

METAR-TAF

Flygplatser :

Jeddah, Saudiarabien

latitud: 21-42N, longitud: 039-11E, höjd: 15 m

Aktuellt väderrapport

Denna rapport gjordes för 46 minuter sedan, klockan 07:00 UTC
Vind 4 kt från nord/nordväst
Temperatur 25°C
Fuktighet 47%
Tryck 1017 hPa
Sikt 10 km eller mer
Inga moln under 1 500 m eller inga cumulonimbus

METAR: OEJN 220700Z 33004KT CAVOK 25/13 Q1017 NOSIG

Tid: 10:46 (07:46 UTC)

Väderprognos

Denna rapport gjordes för 2 timmar och 46 minuter sedan, klockan 05:00 UTC
Prognos gäller från 22 kl. 06 UTC till 23 kl. 12 UTC
Vind 12 kt från väst/nordväst
Sikt 10 km eller mer
Inga moln under 1 500 m eller inga cumulonimbus
Blir
från 22 kl. 18 UTC till 22 kl. 20 UTC
Vind 8 kt från nord/nordost
Sikt: 7000 m
Få moln på en höjd av 4000 ft

TAF: OEJN 220500Z 2206/2312 30012KT CAVOK BECMG 2218/2220 03008KT 7000 FEW040

Aktuella väderrapporter och prognoser från 4000 flygplatser (METAR- och TAF-rapporter).

De tillgängliga stationerna syns som gula och röda prickar på kartan.

För musen över prickarna för att se namnen på stationerna.

Klicka sedan för att få väderrapporter och prognoser.

För att ändra kartan: Klicka på de gröna knapparna med ett svart kors på för att zooma in; den gröna knappen med ett streck på för att zooma ut; eller på de gröna pilarna för angränsande kartor.


METAR-TAF: